BKPR/PRN METAR and TAF weather

Enter ICAO airport designator
Station Type Date Time Source
BKPR METAR 2019/11/21 03:30 UTC NOAA

BKPR 210330Z 00000KT 0100 R17/0250V0400 FG BKN004 02/00 Q1017 NOSIG RMK 17290095


Station Type Date Time Source
BKPR Decoded METAR 2019/11/21 03:30 UTC NOAA

Station name not available
Nov 20, 2019 - 10:30 PM EST / 2019.11.21 0330 UTC
Wind: Calm (direction variable):0
Visibility: less than 1 mile:0
Sky conditions: mostly cloudy
Weather: fog
Temperature: 35 F (2 C)
Dew Point: 32 F (0 C)
Relative Humidity: 86%
Pressure (altimeter): 30.03 in. Hg (1017 hPa)
ob: BKPR 210330Z 00000KT 0100 R17/0250V0400 FG BKN004 02/00 Q1017 NOSIG RMK 17290095
cycle: 3

Station Type Date Time Source
BKPR TAF 2019/11/20 18:30 UTC NOAA

TAF BKPR 201730Z 2018/2118 VRB03KT 9999 SCT030 BKN060
BECMG 2102/2104 1500 BR PROB40
TEMPO 2105/2108 0300 FG BKN003
BECMG 2108/2110 9999 NSW NSC

Example: see airport list